sensor_id;sensor_type;location;lat;lon;timestamp;temperature;humidity
64599;SHT31;51008;51.504;11.548;2023-05-07T00:04:39;9.53;92.29
64599;SHT31;51008;51.504;11.548;2023-05-07T00:09:40;9.52;92.68
64599;SHT31;51008;51.504;11.548;2023-05-07T00:14:41;9.53;92.46
64599;SHT31;51008;51.504;11.548;2023-05-07T00:19:42;9.56;92.65
64599;SHT31;51008;51.504;11.548;2023-05-07T00:24:43;9.49;93.07
64599;SHT31;51008;51.504;11.548;2023-05-07T00:29:44;9.38;93.81
64599;SHT31;51008;51.504;11.548;2023-05-07T00:34:45;9.41;93.79
64599;SHT31;51008;51.504;11.548;2023-05-07T00:39:46;9.36;93.80
64599;SHT31;51008;51.504;11.548;2023-05-07T00:44:47;9.44;93.53
64599;SHT31;51008;51.504;11.548;2023-05-07T00:49:48;9.38;93.70
64599;SHT31;51008;51.504;11.548;2023-05-07T00:54:50;9.31;94.30
64599;SHT31;51008;51.504;11.548;2023-05-07T00:59:51;9.28;94.53
64599;SHT31;51008;51.504;11.548;2023-05-07T01:04:52;9.25;94.47
64599;SHT31;51008;51.504;11.548;2023-05-07T01:09:53;9.25;94.56
64599;SHT31;51008;51.504;11.548;2023-05-07T01:14:54;9.13;95.29
64599;SHT31;51008;51.504;11.548;2023-05-07T01:19:55;9.16;94.86
64599;SHT31;51008;51.504;11.548;2023-05-07T01:24:57;9.01;95.24
64599;SHT31;51008;51.504;11.548;2023-05-07T01:29:59;9.04;95.32
64599;SHT31;51008;51.504;11.548;2023-05-07T01:35:01;8.91;95.12
64599;SHT31;51008;51.504;11.548;2023-05-07T01:40:03;8.80;95.93
64599;SHT31;51008;51.504;11.548;2023-05-07T01:45:05;8.72;96.30
64599;SHT31;51008;51.504;11.548;2023-05-07T01:50:07;8.73;96.25
64599;SHT31;51008;51.504;11.548;2023-05-07T01:55:08;8.68;95.68
64599;SHT31;51008;51.504;11.548;2023-05-07T02:00:09;8.69;95.75
64599;SHT31;51008;51.504;11.548;2023-05-07T02:05:16;8.69;95.51
64599;SHT31;51008;51.504;11.548;2023-05-07T02:10:20;8.66;95.42
64599;SHT31;51008;51.504;11.548;2023-05-07T02:15:21;8.66;95.44
64599;SHT31;51008;51.504;11.548;2023-05-07T02:20:23;8.65;95.02
64599;SHT31;51008;51.504;11.548;2023-05-07T02:25:24;8.54;95.22
64599;SHT31;51008;51.504;11.548;2023-05-07T02:30:25;8.52;94.74
64599;SHT31;51008;51.504;11.548;2023-05-07T02:35:28;8.48;94.95
64599;SHT31;51008;51.504;11.548;2023-05-07T02:40:29;8.48;95.27
64599;SHT31;51008;51.504;11.548;2023-05-07T02:45:31;8.48;95.58
64599;SHT31;51008;51.504;11.548;2023-05-07T02:50:32;8.54;95.51
64599;SHT31;51008;51.504;11.548;2023-05-07T02:55:33;8.52;95.31
64599;SHT31;51008;51.504;11.548;2023-05-07T03:00:35;8.48;95.19
64599;SHT31;51008;51.504;11.548;2023-05-07T03:05:56;8.47;94.73
64599;SHT31;51008;51.504;11.548;2023-05-07T03:10:57;8.49;94.11
64599;SHT31;51008;51.504;11.548;2023-05-07T03:15:58;8.42;94.28
64599;SHT31;51008;51.504;11.548;2023-05-07T03:20:59;8.38;94.34
64599;SHT31;51008;51.504;11.548;2023-05-07T03:26:00;8.40;94.16
64599;SHT31;51008;51.504;11.548;2023-05-07T03:31:01;8.42;94.05
64599;SHT31;51008;51.504;11.548;2023-05-07T03:36:04;8.52;93.81
64599;SHT31;51008;51.504;11.548;2023-05-07T03:41:05;8.49;93.73
64599;SHT31;51008;51.504;11.548;2023-05-07T03:46:07;8.48;93.62
64599;SHT31;51008;51.504;11.548;2023-05-07T03:51:08;8.47;93.67
64599;SHT31;51008;51.504;11.548;2023-05-07T03:56:09;8.55;93.56
64599;SHT31;51008;51.504;11.548;2023-05-07T04:01:13;8.58;93.38
64599;SHT31;51008;51.504;11.548;2023-05-07T04:06:16;8.59;93.38
64599;SHT31;51008;51.504;11.548;2023-05-07T04:11:19;8.61;93.12
64599;SHT31;51008;51.504;11.548;2023-05-07T04:16:20;8.61;93.23
64599;SHT31;51008;51.504;11.548;2023-05-07T04:21:21;8.61;93.33
64599;SHT31;51008;51.504;11.548;2023-05-07T04:26:24;8.65;93.17
64599;SHT31;51008;51.504;11.548;2023-05-07T04:31:25;8.66;93.05
64599;SHT31;51008;51.504;11.548;2023-05-07T04:36:28;8.72;92.88
64599;SHT31;51008;51.504;11.548;2023-05-07T04:41:36;8.75;93.06
64599;SHT31;51008;51.504;11.548;2023-05-07T04:46:38;8.72;93.38
64599;SHT31;51008;51.504;11.548;2023-05-07T04:51:40;8.77;93.15
64599;SHT31;51008;51.504;11.548;2023-05-07T04:56:41;8.79;93.23
64599;SHT31;51008;51.504;11.548;2023-05-07T05:01:43;8.87;93.22
64599;SHT31;51008;51.504;11.548;2023-05-07T05:06:44;8.71;93.41
64599;SHT31;51008;51.504;11.548;2023-05-07T05:11:46;8.75;93.61
64599;SHT31;51008;51.504;11.548;2023-05-07T05:16:47;8.77;93.75
64599;SHT31;51008;51.504;11.548;2023-05-07T05:21:49;8.76;93.46
64599;SHT31;51008;51.504;11.548;2023-05-07T05:26:50;8.83;92.93
64599;SHT31;51008;51.504;11.548;2023-05-07T05:31:51;8.84;93.00
64599;SHT31;51008;51.504;11.548;2023-05-07T05:36:53;8.90;92.83
64599;SHT31;51008;51.504;11.548;2023-05-07T05:41:54;8.89;92.90
64599;SHT31;51008;51.504;11.548;2023-05-07T05:46:56;8.90;92.85
64599;SHT31;51008;51.504;11.548;2023-05-07T05:51:57;8.96;92.66
64599;SHT31;51008;51.504;11.548;2023-05-07T05:57:00;8.97;92.28
64599;SHT31;51008;51.504;11.548;2023-05-07T06:02:02;9.03;92.53
64599;SHT31;51008;51.504;11.548;2023-05-07T06:07:03;8.97;92.25
64599;SHT31;51008;51.504;11.548;2023-05-07T06:12:05;9.01;91.60
64599;SHT31;51008;51.504;11.548;2023-05-07T06:17:06;9.07;91.62
64599;SHT31;51008;51.504;11.548;2023-05-07T06:22:07;9.16;91.60
64599;SHT31;51008;51.504;11.548;2023-05-07T06:27:09;9.17;91.72
64599;SHT31;51008;51.504;11.548;2023-05-07T06:32:13;9.27;91.69
64599;SHT31;51008;51.504;11.548;2023-05-07T06:37:17;9.30;91.02
64599;SHT31;51008;51.504;11.548;2023-05-07T06:42:39;9.35;91.34
64599;SHT31;51008;51.504;11.548;2023-05-07T06:47:58;9.41;90.86
64599;SHT31;51008;51.504;11.548;2023-05-07T06:53:00;9.36;90.41
64599;SHT31;51008;51.504;11.548;2023-05-07T06:58:02;9.53;89.72
64599;SHT31;51008;51.504;11.548;2023-05-07T07:03:03;9.69;89.97
64599;SHT31;51008;51.504;11.548;2023-05-07T07:08:05;9.65;89.20
64599;SHT31;51008;51.504;11.548;2023-05-07T07:13:06;9.52;88.94
64599;SHT31;51008;51.504;11.548;2023-05-07T07:18:07;9.48;88.89
64599;SHT31;51008;51.504;11.548;2023-05-07T07:23:08;9.61;89.61
64599;SHT31;51008;51.504;11.548;2023-05-07T07:28:09;9.76;88.97
64599;SHT31;51008;51.504;11.548;2023-05-07T07:33:12;9.79;88.07
64599;SHT31;51008;51.504;11.548;2023-05-07T07:38:13;9.75;88.41
64599;SHT31;51008;51.504;11.548;2023-05-07T07:43:14;9.87;88.33
64599;SHT31;51008;51.504;11.548;2023-05-07T07:48:15;9.97;88.08
64599;SHT31;51008;51.504;11.548;2023-05-07T07:53:17;10.11;87.36
64599;SHT31;51008;51.504;11.548;2023-05-07T07:58:18;9.91;87.33
64599;SHT31;51008;51.504;11.548;2023-05-07T08:03:19;9.75;87.70
64599;SHT31;51008;51.504;11.548;2023-05-07T08:08:25;9.72;87.36
64599;SHT31;51008;51.504;11.548;2023-05-07T08:13:28;9.73;87.65
64599;SHT31;51008;51.504;11.548;2023-05-07T08:18:29;9.76;87.34
64599;SHT31;51008;51.504;11.548;2023-05-07T08:23:32;9.97;87.36
64599;SHT31;51008;51.504;11.548;2023-05-07T08:28:35;10.06;86.49
64599;SHT31;51008;51.504;11.548;2023-05-07T08:33:36;9.94;86.47
64599;SHT31;51008;51.504;11.548;2023-05-07T08:38:37;9.89;86.91
64599;SHT31;51008;51.504;11.548;2023-05-07T08:43:40;9.87;86.48
64599;SHT31;51008;51.504;11.548;2023-05-07T08:48:42;9.93;85.96
64599;SHT31;51008;51.504;11.548;2023-05-07T08:53:49;9.78;85.83
64599;SHT31;51008;51.504;11.548;2023-05-07T08:58:57;9.85;86.58
64599;SHT31;51008;51.504;11.548;2023-05-07T09:03:58;9.82;86.80
64599;SHT31;51008;51.504;11.548;2023-05-07T09:09:01;9.65;87.35
64599;SHT31;51008;51.504;11.548;2023-05-07T09:14:04;9.61;88.14
64599;SHT31;51008;51.504;11.548;2023-05-07T09:19:10;9.66;87.55
64599;SHT31;51008;51.504;11.548;2023-05-07T09:24:16;9.94;85.79
64599;SHT31;51008;51.504;11.548;2023-05-07T09:29:18;10.06;84.74
64599;SHT31;51008;51.504;11.548;2023-05-07T09:34:20;10.15;84.82
64599;SHT31;51008;51.504;11.548;2023-05-07T09:39:25;10.11;85.38
64599;SHT31;51008;51.504;11.548;2023-05-07T09:44:26;10.39;84.25
64599;SHT31;51008;51.504;11.548;2023-05-07T09:49:29;10.63;82.34
64599;SHT31;51008;51.504;11.548;2023-05-07T09:54:36;10.70;82.42
64599;SHT31;51008;51.504;11.548;2023-05-07T09:59:38;10.80;82.49
64599;SHT31;51008;51.504;11.548;2023-05-07T10:04:43;10.76;80.92
64599;SHT31;51008;51.504;11.548;2023-05-07T10:09:44;10.94;81.64
64599;SHT31;51008;51.504;11.548;2023-05-07T10:14:54;10.90;81.52
64599;SHT31;51008;51.504;11.548;2023-05-07T10:19:56;11.25;81.75
64599;SHT31;51008;51.504;11.548;2023-05-07T10:24:59;11.43;79.89
64599;SHT31;51008;51.504;11.548;2023-05-07T10:35:17;11.27;80.55
64599;SHT31;51008;51.504;11.548;2023-05-07T10:40:21;11.06;80.56
64599;SHT31;51008;51.504;11.548;2023-05-07T10:45:23;11.03;80.22
64599;SHT31;51008;51.504;11.548;2023-05-07T10:50:27;11.12;81.11
64599;SHT31;51008;51.504;11.548;2023-05-07T10:55:34;10.99;81.26
64599;SHT31;51008;51.504;11.548;2023-05-07T11:00:50;10.99;81.24
64599;SHT31;51008;51.504;11.548;2023-05-07T11:06:14;10.97;82.00
64599;SHT31;51008;51.504;11.548;2023-05-07T11:11:47;10.84;81.59
64599;SHT31;51008;51.504;11.548;2023-05-07T11:17:02;11.06;81.71
64599;SHT31;51008;51.504;11.548;2023-05-07T11:22:04;11.21;80.88
64599;SHT31;51008;51.504;11.548;2023-05-07T11:27:14;11.27;80.12
64599;SHT31;51008;51.504;11.548;2023-05-07T11:32:15;11.61;79.96
64599;SHT31;51008;51.504;11.548;2023-05-07T11:37:27;11.52;80.03
64599;SHT31;51008;51.504;11.548;2023-05-07T11:42:34;11.56;79.52
64599;SHT31;51008;51.504;11.548;2023-05-07T11:47:35;11.48;80.19
64599;SHT31;51008;51.504;11.548;2023-05-07T11:52:36;11.79;80.07
64599;SHT31;51008;51.504;11.548;2023-05-07T11:57:37;11.81;79.64
64599;SHT31;51008;51.504;11.548;2023-05-07T12:02:38;11.89;79.76
64599;SHT31;51008;51.504;11.548;2023-05-07T12:07:39;11.93;79.69
64599;SHT31;51008;51.504;11.548;2023-05-07T12:12:41;11.97;79.37
64599;SHT31;51008;51.504;11.548;2023-05-07T12:17:42;11.77;79.59
64599;SHT31;51008;51.504;11.548;2023-05-07T12:22:43;11.81;79.80
64599;SHT31;51008;51.504;11.548;2023-05-07T12:27:44;11.86;79.70
64599;SHT31;51008;51.504;11.548;2023-05-07T12:32:53;11.66;80.59
64599;SHT31;51008;51.504;11.548;2023-05-07T12:37:58;11.65;80.92
64599;SHT31;51008;51.504;11.548;2023-05-07T12:42:59;11.80;79.73
64599;SHT31;51008;51.504;11.548;2023-05-07T12:48:01;11.70;78.01
64599;SHT31;51008;51.504;11.548;2023-05-07T12:53:06;11.87;78.27
64599;SHT31;51008;51.504;11.548;2023-05-07T12:58:07;11.80;78.75
64599;SHT31;51008;51.504;11.548;2023-05-07T13:03:08;11.52;80.45
64599;SHT31;51008;51.504;11.548;2023-05-07T13:08:09;11.72;80.79
64599;SHT31;51008;51.504;11.548;2023-05-07T13:13:10;11.89;79.04
64599;SHT31;51008;51.504;11.548;2023-05-07T13:18:11;11.93;78.52
64599;SHT31;51008;51.504;11.548;2023-05-07T13:23:12;11.83;79.10
64599;SHT31;51008;51.504;11.548;2023-05-07T13:28:13;11.74;78.26
64599;SHT31;51008;51.504;11.548;2023-05-07T13:33:14;11.74;79.46
64599;SHT31;51008;51.504;11.548;2023-05-07T13:38:15;11.94;79.07
64599;SHT31;51008;51.504;11.548;2023-05-07T13:43:16;11.76;78.48
64599;SHT31;51008;51.504;11.548;2023-05-07T13:48:17;11.81;78.02
64599;SHT31;51008;51.504;11.548;2023-05-07T13:53:18;11.67;78.72
64599;SHT31;51008;51.504;11.548;2023-05-07T13:58:19;11.67;79.31
64599;SHT31;51008;51.504;11.548;2023-05-07T14:03:20;11.55;78.57
64599;SHT31;51008;51.504;11.548;2023-05-07T14:08:21;11.52;78.99
64599;SHT31;51008;51.504;11.548;2023-05-07T14:13:22;11.95;78.64
64599;SHT31;51008;51.504;11.548;2023-05-07T14:18:23;12.18;77.52
64599;SHT31;51008;51.504;11.548;2023-05-07T14:23:24;12.31;76.96
64599;SHT31;51008;51.504;11.548;2023-05-07T14:28:25;12.49;75.93
64599;SHT31;51008;51.504;11.548;2023-05-07T14:33:25;12.64;76.06
64599;SHT31;51008;51.504;11.548;2023-05-07T14:38:26;12.52;75.73
64599;SHT31;51008;51.504;11.548;2023-05-07T14:43:27;12.66;75.95
64599;SHT31;51008;51.504;11.548;2023-05-07T14:48:28;12.76;75.79
64599;SHT31;51008;51.504;11.548;2023-05-07T14:53:29;12.64;76.39
64599;SHT31;51008;51.504;11.548;2023-05-07T14:58:30;12.56;75.67
64599;SHT31;51008;51.504;11.548;2023-05-07T15:03:31;12.43;75.80
64599;SHT31;51008;51.504;11.548;2023-05-07T15:08:32;12.46;75.66
64599;SHT31;51008;51.504;11.548;2023-05-07T15:13:33;12.57;76.13
64599;SHT31;51008;51.504;11.548;2023-05-07T15:18:34;12.34;76.76
64599;SHT31;51008;51.504;11.548;2023-05-07T15:23:35;12.22;78.06
64599;SHT31;51008;51.504;11.548;2023-05-07T15:28:36;12.20;77.56
64599;SHT31;51008;51.504;11.548;2023-05-07T15:33:37;12.11;77.57
64599;SHT31;51008;51.504;11.548;2023-05-07T15:38:38;12.24;76.84
64599;SHT31;51008;51.504;11.548;2023-05-07T15:43:47;12.26;76.05
64599;SHT31;51008;51.504;11.548;2023-05-07T15:48:48;12.38;76.52
64599;SHT31;51008;51.504;11.548;2023-05-07T15:53:49;12.39;75.72
64599;SHT31;51008;51.504;11.548;2023-05-07T15:58:50;12.50;76.74
64599;SHT31;51008;51.504;11.548;2023-05-07T16:03:51;12.38;75.83
64599;SHT31;51008;51.504;11.548;2023-05-07T16:08:52;12.21;76.43
64599;SHT31;51008;51.504;11.548;2023-05-07T16:13:53;12.13;76.44
64599;SHT31;51008;51.504;11.548;2023-05-07T16:18:55;12.29;77.75
64599;SHT31;51008;51.504;11.548;2023-05-07T16:23:56;12.28;76.32
64599;SHT31;51008;51.504;11.548;2023-05-07T16:28:57;12.22;76.40
64599;SHT31;51008;51.504;11.548;2023-05-07T16:33:58;12.13;76.78
64599;SHT31;51008;51.504;11.548;2023-05-07T16:38:59;12.17;77.51
64599;SHT31;51008;51.504;11.548;2023-05-07T16:44:00;12.14;77.28
64599;SHT31;51008;51.504;11.548;2023-05-07T16:49:01;12.14;77.46
64599;SHT31;51008;51.504;11.548;2023-05-07T16:54:02;12.08;77.63
64599;SHT31;51008;51.504;11.548;2023-05-07T16:59:03;12.04;77.89
64599;SHT31;51008;51.504;11.548;2023-05-07T17:04:04;11.97;77.53
64599;SHT31;51008;51.504;11.548;2023-05-07T17:09:05;11.90;77.32
64599;SHT31;51008;51.504;11.548;2023-05-07T17:14:06;11.80;77.01
64599;SHT31;51008;51.504;11.548;2023-05-07T17:19:07;11.70;76.92
64599;SHT31;51008;51.504;11.548;2023-05-07T17:24:08;11.67;77.39
64599;SHT31;51008;51.504;11.548;2023-05-07T17:29:09;11.62;77.95
64599;SHT31;51008;51.504;11.548;2023-05-07T17:34:10;11.62;77.56
64599;SHT31;51008;51.504;11.548;2023-05-07T17:39:11;11.54;78.59
64599;SHT31;51008;51.504;11.548;2023-05-07T17:44:12;11.51;79.38
64599;SHT31;51008;51.504;11.548;2023-05-07T17:49:14;11.43;80.25
64599;SHT31;51008;51.504;11.548;2023-05-07T17:54:15;11.40;79.99
64599;SHT31;51008;51.504;11.548;2023-05-07T17:59:16;11.28;79.50
64599;SHT31;51008;51.504;11.548;2023-05-07T18:04:17;11.11;80.02
64599;SHT31;51008;51.504;11.548;2023-05-07T18:09:18;11.06;80.00
64599;SHT31;51008;51.504;11.548;2023-05-07T18:14:19;11.00;80.01
64599;SHT31;51008;51.504;11.548;2023-05-07T18:19:20;10.90;80.86
64599;SHT31;51008;51.504;11.548;2023-05-07T18:24:21;10.84;80.73
64599;SHT31;51008;51.504;11.548;2023-05-07T18:29:22;10.80;81.01
64599;SHT31;51008;51.504;11.548;2023-05-07T18:34:23;10.69;81.03
64599;SHT31;51008;51.504;11.548;2023-05-07T18:39:23;10.75;80.88
64599;SHT31;51008;51.504;11.548;2023-05-07T18:44:24;10.66;81.48
64599;SHT31;51008;51.504;11.548;2023-05-07T18:49:25;10.65;81.26
64599;SHT31;51008;51.504;11.548;2023-05-07T18:54:27;10.56;81.57
64599;SHT31;51008;51.504;11.548;2023-05-07T18:59:28;10.50;81.36
64599;SHT31;51008;51.504;11.548;2023-05-07T19:04:29;10.44;81.78
64599;SHT31;51008;51.504;11.548;2023-05-07T19:09:30;10.42;81.64
64599;SHT31;51008;51.504;11.548;2023-05-07T19:14:31;10.38;81.72
64599;SHT31;51008;51.504;11.548;2023-05-07T19:19:32;10.28;82.44
64599;SHT31;51008;51.504;11.548;2023-05-07T19:24:33;10.24;82.68
64599;SHT31;51008;51.504;11.548;2023-05-07T19:29:34;10.28;82.85
64599;SHT31;51008;51.504;11.548;2023-05-07T19:34:35;10.13;83.18
64599;SHT31;51008;51.504;11.548;2023-05-07T19:39:36;10.10;82.82
64599;SHT31;51008;51.504;11.548;2023-05-07T19:44:37;9.98;83.48
64599;SHT31;51008;51.504;11.548;2023-05-07T19:49:37;9.98;83.54
64599;SHT31;51008;51.504;11.548;2023-05-07T19:54:38;9.86;83.86
64599;SHT31;51008;51.504;11.548;2023-05-07T19:59:39;9.82;84.00
64599;SHT31;51008;51.504;11.548;2023-05-07T20:04:40;9.76;84.03
64599;SHT31;51008;51.504;11.548;2023-05-07T20:09:41;9.66;84.05
64599;SHT31;51008;51.504;11.548;2023-05-07T20:14:42;9.53;84.33
64599;SHT31;51008;51.504;11.548;2023-05-07T20:19:43;9.34;84.89
64599;SHT31;51008;51.504;11.548;2023-05-07T20:24:44;9.13;84.99
64599;SHT31;51008;51.504;11.548;2023-05-07T20:29:45;8.94;85.18
64599;SHT31;51008;51.504;11.548;2023-05-07T20:34:46;8.79;85.28
64599;SHT31;51008;51.504;11.548;2023-05-07T20:39:47;8.55;86.01
64599;SHT31;51008;51.504;11.548;2023-05-07T20:44:48;8.49;86.03
64599;SHT31;51008;51.504;11.548;2023-05-07T20:49:53;8.40;86.13
64599;SHT31;51008;51.504;11.548;2023-05-07T20:54:54;8.31;86.44
64599;SHT31;51008;51.504;11.548;2023-05-07T20:59:55;8.16;86.86
64599;SHT31;51008;51.504;11.548;2023-05-07T21:04:56;8.03;87.08
64599;SHT31;51008;51.504;11.548;2023-05-07T21:09:57;7.92;87.32
64599;SHT31;51008;51.504;11.548;2023-05-07T21:14:57;7.82;87.50
64599;SHT31;51008;51.504;11.548;2023-05-07T21:19:58;7.69;87.78
64599;SHT31;51008;51.504;11.548;2023-05-07T21:24:59;7.62;87.73
64599;SHT31;51008;51.504;11.548;2023-05-07T21:30:00;7.51;87.84
64599;SHT31;51008;51.504;11.548;2023-05-07T21:35:01;7.43;87.95
64599;SHT31;51008;51.504;11.548;2023-05-07T21:40:04;7.34;88.01
64599;SHT31;51008;51.504;11.548;2023-05-07T21:45:05;7.24;88.40
64599;SHT31;51008;51.504;11.548;2023-05-07T21:50:06;7.20;88.60
64599;SHT31;51008;51.504;11.548;2023-05-07T21:55:08;7.12;88.81
64599;SHT31;51008;51.504;11.548;2023-05-07T22:00:09;7.06;88.99
64599;SHT31;51008;51.504;11.548;2023-05-07T22:05:10;6.99;89.26
64599;SHT31;51008;51.504;11.548;2023-05-07T22:10:11;6.95;89.29
64599;SHT31;51008;51.504;11.548;2023-05-07T22:15:12;6.93;89.23
64599;SHT31;51008;51.504;11.548;2023-05-07T22:20:13;6.89;89.29
64599;SHT31;51008;51.504;11.548;2023-05-07T22:25:15;6.88;89.46
64599;SHT31;51008;51.504;11.548;2023-05-07T22:30:16;6.79;89.51
64599;SHT31;51008;51.504;11.548;2023-05-07T22:35:17;6.72;89.76
64599;SHT31;51008;51.504;11.548;2023-05-07T22:40:18;6.67;89.75
64599;SHT31;51008;51.504;11.548;2023-05-07T22:45:19;6.64;90.00
64599;SHT31;51008;51.504;11.548;2023-05-07T22:50:20;6.55;90.31
64599;SHT31;51008;51.504;11.548;2023-05-07T22:55:21;6.54;90.66
64599;SHT31;51008;51.504;11.548;2023-05-07T23:00:22;6.48;90.75
64599;SHT31;51008;51.504;11.548;2023-05-07T23:05:23;6.51;90.82
64599;SHT31;51008;51.504;11.548;2023-05-07T23:10:24;6.47;90.92
64599;SHT31;51008;51.504;11.548;2023-05-07T23:15:25;6.41;91.18
64599;SHT31;51008;51.504;11.548;2023-05-07T23:20:26;6.36;91.44
64599;SHT31;51008;51.504;11.548;2023-05-07T23:25:27;6.32;91.75
64599;SHT31;51008;51.504;11.548;2023-05-07T23:30:28;6.36;91.64
64599;SHT31;51008;51.504;11.548;2023-05-07T23:35:29;6.26;91.86
64599;SHT31;51008;51.504;11.548;2023-05-07T23:40:30;6.26;91.87
64599;SHT31;51008;51.504;11.548;2023-05-07T23:45:31;6.27;92.09
64599;SHT31;51008;51.504;11.548;2023-05-07T23:50:32;6.25;92.10
64599;SHT31;51008;51.504;11.548;2023-05-07T23:55:33;6.17;91.98
